Forside
METAR-TAF:

METAR-TAF

Lufthavne :

Chanute, Kansas, USA

Breddekreds: 37-40-13N, længdekreds: 095-29-03W, højde: 305 m

Aktuelle vejr

Denne rapport blev lavet for 52 minutter siden, kl. 15:52 UTC
Vind 4 kt fra nordøst
Temperatur 17°C
Fugtighed 68%
Tryk 1027 hPa
Sigt: 16.1 km
skyfri

METAR: KCNU 231552Z AUTO 04004KT 10SM CLR 17/11 A3032 RMK AO2 SLP263 T01720111

Tid: 11:44 (16:44 UTC)

Vejrudsigter

Denne rapport blev lavet for 3 timer og 57 minutter siden, kl. 12:47 UTC
Foreløbig gælder fra 23 på 13 UTC til 24 på 12 UTC
Vind kt fra nord
Sigt: 6.4 km
Brudte skyer i en højde af 20000 ft
dis
Midlertidig
fra 23 på 13 UTC til 23 på 15 UTC
Sigt: 3.2 km
dis
Fra 23 på 1500 UTC
Vind 7 kt fra østnordøst
Sigt: 10 km
Brudte skyer i en højde af 20000 ft

TAF: KCNU 231247Z 2313/2412 00000KT 4SM BR BKN200 TEMPO 2313/2315 2SM BR FM231500 06007KT P6SM BKN200

Vejrobservationer og prognoser fra mere end 4000 lufthavne (METAR og TAF).

De gule og røde prikker repræsenterer de meteorologiske stationer.

Flyt musen over at se navnet på stationen.

Så klik over at se vejr observationer og prognoser.

At skifte det kort: Klik på de grønne knapper med et sort kors for at zoome ind; på den grønne knap med en bindestreg for at zoome ud; eller på de grønne pile for tilstødende kort.


METAR-TAF: